Mauldin, SC (29662)

10:20 PM EDT on September 17, 2014 (GMT -0400)
Heritage Lakes | Change Station
CLOSE
Current Station
Personal Weather Station
Location: Simpsonville, SC
Elevation: 910 ft
Nearby Weather Stations

Elev 910 ft 34.81 °N, 82.26 °W | Updated 36 seconds ago

Clear
Clear
65.9 °F
Feels Like 65.9 °F
N
0.0
Wind Variable Wind from North
Gusts 0.0 mph

Today
High -- | Low -- °F
--% Chance of Precip.
Yesterday
High -- | Low -- °F
Precip. -- in
7:13 AM 7:33 PM
Waning Crescent, 31% visible
Pressure 29.97 in
Visibility 10.0 miles
Clouds Scattered Clouds 4000 ft
Dew Point 64 °F
Humidity 95%
Rainfall 0.04 in
Snow Depth Not available.
UV 0 out of 12
Pollen 6.90 out of 12
Ozone Good
PM2.5 Good
Flu Activity Not available.
METAR KGYH 180215Z AUTO 09003KT 10SM SCT040 20/20 A2997 RMK AO2

More Conditions Fewer Conditions

Pressure 29.97 in
Visibility 10.0 miles
Clouds Scattered Clouds 4000 ft
Dew Point 64 °F
Humidity 95%
Rainfall 0.04 in
Snow Depth Not available.
UV 0 out of 12
Pollen 6.90 out of 12
Ozone Good
PM2.5 Good
Flu Activity Not available.
METAR KGYH 180215Z AUTO 09003KT 10SM SCT040 20/20 A2997 RMK AO2

More Conditions Fewer Conditions

10-Day Weather Forecast

Almanac

Astronomy

Sep. 17, 2014 Rise Set
Actual Time 7:13 AM EDT 7:33 PM EDT
Civil Twilight 6:48 AM EDT 7:58 PM EDT
Nautical Twilight 6:18 AM EDT 8:27 PM EDT
Astronomical Twilight 5:48 AM EDT 8:57 PM EDT
Moon 1:22 AM EDT (9/17) 3:32 PM EDT (9/17)
Length of Visible Light 13h 10m
Length of Day
12h 19m
Tomorrow will be 2m 9s shorter.
Waning Crescent, 31% of the Moon is Illuminated
Today
Waning Crescent
Sep 24
New
Oct 1
First Quarter
Oct 8
Full
Oct 15
Last Quarter

Today's Extremes

State Highs State Lows

Community

WunderPhotos

Upload Photos

1,754,268 photos uploaded!

Nearby

Air Quality

  Air Quality AQ Index Pollutant
Yesterday Good
OZONE
Yesterday Good
PM2.5
Current Good
PM2.5
Current Good
OZONE
Wednesday Good
OZONE
Thursday Good
OZONE

Snow Depth

Station Depth Elevation
No new snow has been reported.

Earthquake Activity

City Distance Mag. Time & Date
No recent earthquake activity has been reported nearby.
Minimum magnitude displayed is 2.5.

Coastal Water Temperatures

Place Temperature
No Stations Reporting

Nearby Weather Stations